Dobrodošli na spletni strani vremenske postaje Senovo. Vse informacije so informativnega značaja, saj vremenska postaja ni del državne mreže meteoroloških postaj. AKTUALNIH OBVESTIL NI.


Posebna pozornost v zvezi z vremenskimi dogajanji ni potrebna.    Posebna pozornost v zvezi z vremenskimi dogajanji ni potrebna.

Pogled proti Armezu več informacij Pogled proti Armezu


Bohor več informacij Bohor


Radar strel več informacij blitzortung!


Radar padavin več informacij rain snow radar


Obiščite še:

Template documentation
and downloads

And another site



Weather Underground, zgodovina - Tekstovno

Dnevni povzetek za November 6, 2017 Enote:  Angleško    Metrično   Obe
« Predhodni Dan
Naslednji Dan »
Dnevni Tedenski Mesečni Letni Po meri
  Višja: Nižja: Povprečje:
Temperatura: TemperatureC °F 7.8 °F 8.6 °F
Točka rosišča: DewpointC °F 5.6 °F 6.7 °F
Vlažnost: Humidity % 83 % 87 %
Hitrost vetra: WindSpeedKMH mph 0.0 mph 8.3 mph
Sunki vetra: WindSpeedGustKMH mph - -
Veter:- - East
Zračni tlak: PressurehPa in 1009.0 in -
Padavine: 35.8 in    
Historical Graphs
 
 
Tabelarni podarki za November 6, 2017
Čas Temperatura Točka rosišča Zračni tlak Veter Hitrost vetra Sunki vetra Vlažnost Intenziteta padavin (urna)
TemperatureC °F DewpointC °F PressurehPa in Calm     Humidity % HourlyPrecipMM in
00:03 9.2 °F 7.2 °F 1009.0 in West 0.2 mph 1.4 mph 87 % 1.0 in
00:08 9.2 °F 7.2 °F 1010.0 in South 0.2 mph 2.1 mph 87 % 1.3 in
00:13 9.2 °F 7.3 °F 1010.0 in South 0.2 mph 2.1 mph 88 % 1.5 in
00:18 9.2 °F 7.3 °F 1010.0 in Calm     88 % 1.5 in
00:23 9.2 °F 7.3 °F 1009.0 in Calm     88 % 1.5 in
00:28 9.2 °F 7.5 °F 1009.0 in Calm     89 % 1.5 in
00:33 9.1 °F 7.4 °F 1009.0 in Calm     89 % 1.5 in
00:43 9.1 °F 7.6 °F 1009.0 in Calm     90 % 1.3 in
00:48 9.1 °F 7.6 °F 1009.0 in Calm     90 % 1.3 in
00:53 9.1 °F 7.6 °F 1009.0 in ESE 0.3 mph 1.4 mph 90 % 1.0 in
00:58 9.1 °F 7.6 °F 1009.0 in ESE 0.3 mph 1.4 mph 90 % 1.0 in
01:00 9.1 °F 7.6 °F 1009.0 in ESE 0.3 mph 1.4 mph 90 % 1.0 in
01:05 9.1 °F 7.7 °F 1009.0 in West 0.3 mph 4.0 mph 91 % 1.0 in
01:10 9.2 °F 7.8 °F 1009.0 in SSW 1.3 mph 4.3 mph 91 % 0.5 in
01:15 9.1 °F 7.7 °F 1009.0 in SE 0.8 mph 4.3 mph 91 % 0.3 in
01:20 9.2 °F 7.8 °F 1009.0 in Calm     91 % 0.3 in
01:25 9.1 °F 7.7 °F 1009.0 in Calm     91 % 0.3 in
01:30 9.2 °F 7.9 °F 1009.0 in NNW 0.8 mph 4.3 mph 92 % 0.0 in
01:35 9.2 °F 7.9 °F 1009.0 in North 1.1 mph 4.3 mph 92 % 0.0 in
01:40 9.3 °F 8.1 °F 1009.0 in East 1.4 mph 6.1 mph 92 % 0.0 in
01:45 9.3 °F 8.1 °F 1009.0 in East 2.4 mph 6.1 mph 92 % 0.0 in
01:50 9.3 °F 8.1 °F 1009.0 in ENE 2.3 mph 4.3 mph 92 % 0.0 in
01:55 9.3 °F 8.1 °F 1009.0 in ENE 0.6 mph 2.6 mph 92 % 0.0 in
02:00 9.3 °F 8.1 °F 1009.0 in Calm     92 % 0.0 in
02:05 9.3 °F 8.2 °F 1009.0 in NW 0.8 mph 5.0 mph 93 % 0.0 in
02:10 9.3 °F 8.2 °F 1009.0 in NW 0.6 mph 5.0 mph 93 % 0.0 in
02:15 9.3 °F 8.2 °F 1009.0 in NW 0.8 mph 4.0 mph 93 % 0.0 in
02:20 9.3 °F 8.2 °F 1009.0 in NW 0.8 mph 4.0 mph 93 % 0.0 in
02:25 9.2 °F 8.1 °F 1009.0 in Calm     93 % 0.0 in
02:30 9.2 °F 8.1 °F 1009.0 in NW 0.2 mph 4.0 mph 93 % 0.0 in
02:35 9.2 °F 8.1 °F 1009.0 in NW 0.2 mph 4.0 mph 93 % 0.0 in
02:40 9.2 °F 8.1 °F 1009.0 in NE 0.8 mph 5.8 mph 93 % 0.0 in
02:45 9.3 °F 8.2 °F 1009.0 in NNE 2.1 mph 5.8 mph 93 % 0.0 in
02:50 9.3 °F 8.2 °F 1009.0 in NNE 2.1 mph 5.5 mph 93 % 0.0 in
02:55 9.3 °F 8.2 °F 1009.0 in NE 1.0 mph 4.0 mph 93 % 0.0 in
03:00 9.3 °F 8.2 °F 1009.0 in North 0.8 mph 4.0 mph 93 % 0.0 in
03:05 9.3 °F 8.2 °F 1009.0 in WSW 2.1 mph 6.1 mph 93 % 0.0 in
03:10 9.3 °F 8.2 °F 1009.0 in WSW 3.2 mph 6.1 mph 93 % 0.0 in
03:15 9.3 °F 8.2 °F 1009.0 in WSW 1.6 mph 5.8 mph 93 % 0.0 in
03:20 9.3 °F 8.2 °F 1009.0 in Calm     93 % 0.0 in
03:25 9.3 °F 8.2 °F 1009.0 in Calm     93 % 0.0 in
03:30 9.3 °F 8.2 °F 1009.0 in Calm     93 % 0.0 in
03:35 9.2 °F 8.1 °F 1009.0 in Calm     93 % 0.0 in
03:40 9.2 °F 8.1 °F 1009.0 in Calm     93 % 0.0 in
03:45 9.2 °F 8.1 °F 1009.0 in Calm     93 % 0.0 in
03:50 9.2 °F 8.1 °F 1009.0 in Calm     93 % 0.0 in
03:55 9.2 °F 8.1 °F 1009.0 in WNW 0.2 mph 4.0 mph 93 % 0.0 in
04:00 9.2 °F 8.1 °F 1009.0 in WSW 1.4 mph 5.5 mph 93 % 0.0 in
04:05 9.2 °F 8.3 °F 1009.0 in SW 1.3 mph 5.5 mph 94 % 0.0 in
04:11 9.2 °F 8.3 °F 1009.0 in East 0.2 mph 1.4 mph 94 % 0.0 in
04:16 9.2 °F 8.3 °F 1009.0 in Calm   2.6 mph 94 % 0.0 in
04:21 9.2 °F 8.3 °F 1009.0 in NNW 1.1 mph 4.3 mph 94 % 0.0 in
04:25 9.2 °F 8.3 °F 1009.0 in NNW 1.3 mph 4.3 mph 94 % 0.0 in
04:28 9.2 °F 8.3 °F 1009.0 in NNW 0.6 mph 3.2 mph 94 % 0.0 in
04:30 9.2 °F 8.3 °F 1009.0 in NW 0.5 mph 3.2 mph 94 % 0.0 in
04:35 9.2 °F 8.3 °F 1009.0 in ENE 1.0 mph 7.6 mph 94 % 0.0 in
04:40 9.4 °F 8.5 °F 1009.0 in East 3.4 mph 10.5 mph 94 % 0.0 in
04:45 9.6 °F 8.7 °F 1009.0 in ESE 6.0 mph 11.9 mph 94 % 0.0 in
04:50 9.8 °F 8.9 °F 1009.0 in ESE 6.1 mph 11.9 mph 94 % 0.0 in
04:55 9.9 °F 8.8 °F 1009.0 in ESE 5.8 mph 10.1 mph 93 % 0.0 in
05:00 10.0 °F 8.9 °F 1009.0 in ESE 6.1 mph 15.8 mph 93 % 0.0 in
05:05 10.1 °F 8.8 °F 1010.0 in ESE 8.2 mph 15.8 mph 92 % 0.0 in
05:10 10.2 °F 8.8 °F 1010.0 in ESE 8.0 mph 15.8 mph 91 % 0.0 in
05:15 10.2 °F 8.8 °F 1010.0 in ESE 7.9 mph 15.8 mph 91 % 0.0 in
05:20 10.2 °F 8.6 °F 1010.0 in ESE 7.2 mph 15.8 mph 90 % 0.0 in
05:25 10.1 °F 8.4 °F 1010.0 in ESE 4.8 mph 9.0 mph 89 % 0.3 in
05:30 10.1 °F 8.4 °F 1010.0 in East 4.2 mph 8.7 mph 89 % 0.8 in
05:35 10.0 °F 8.1 °F 1010.0 in East 4.2 mph 8.7 mph 88 % 0.8 in
05:40 9.9 °F 8.0 °F 1010.0 in East 4.7 mph 9.3 mph 88 % 0.8 in
05:45 9.9 °F 8.0 °F 1010.0 in East 5.1 mph 9.3 mph 88 % 0.8 in
05:50 9.9 °F 8.0 °F 1010.0 in East 5.1 mph 8.7 mph 88 % 1.0 in
05:55 9.8 °F 7.9 °F 1010.0 in East 5.0 mph 8.7 mph 88 % 1.0 in
06:00 9.8 °F 7.9 °F 1010.0 in East 4.8 mph 7.6 mph 88 % 1.0 in
06:05 9.8 °F 7.9 °F 1010.0 in East 5.3 mph 8.7 mph 88 % 1.0 in
06:10 9.8 °F 7.9 °F 1010.0 in East 6.6 mph 11.9 mph 88 % 1.0 in
06:15 9.7 °F 7.8 °F 1010.0 in East 7.4 mph 13.0 mph 88 % 1.3 in
06:20 9.7 °F 7.8 °F 1010.0 in East 8.2 mph 14.0 mph 88 % 1.3 in
06:25 9.6 °F 7.7 °F 1010.0 in ESE 10.3 mph 16.9 mph 88 % 1.0 in
06:30 9.5 °F 7.6 °F 1010.0 in ESE 11.9 mph 17.2 mph 88 % 0.8 in
06:35 9.5 °F 7.6 °F 1009.0 in ESE 10.6 mph 17.2 mph 88 % 0.8 in
06:40 9.4 °F 7.5 °F 1009.0 in East 8.2 mph 13.7 mph 88 % 0.8 in
06:45 9.3 °F 7.4 °F 1009.0 in East 7.6 mph 13.7 mph 88 % 0.8 in
06:50 9.4 °F 7.7 °F 1009.0 in East 6.9 mph 13.7 mph 89 % 0.3 in
06:55 9.3 °F 7.6 °F 1009.0 in East 6.1 mph 10.1 mph 89 % 0.3 in
07:00 9.3 °F 7.6 °F 1009.0 in East 5.3 mph 11.6 mph 89 % 0.8 in
07:05 9.3 °F 7.6 °F 1010.0 in East 4.5 mph 11.6 mph 89 % 0.8 in
07:10 9.2 °F 7.3 °F 1010.0 in East 4.8 mph 9.7 mph 88 % 0.8 in
07:15 9.2 °F 7.3 °F 1010.0 in East 5.8 mph 13.0 mph 88 % 0.5 in
07:20 9.1 °F 7.2 °F 1010.0 in East 5.8 mph 13.0 mph 88 % 0.5 in
07:25 9.1 °F 7.2 °F 1010.0 in ENE 7.1 mph 23.0 mph 88 % 1.0 in
07:30 9.1 °F 7.2 °F 1010.0 in ENE 8.0 mph 23.0 mph 88 % 1.3 in
07:35 9.1 °F 7.2 °F 1011.1 in ENE 7.4 mph 11.9 mph 88 % 1.3 in
07:40 9.0 °F 7.1 °F 1011.1 in ENE 6.9 mph 12.2 mph 88 % 1.5 in
07:45 9.1 °F 7.2 °F 1011.1 in NE 6.1 mph 14.0 mph 88 % 1.8 in
07:50 9.0 °F 7.1 °F 1011.1 in NE 6.9 mph 14.0 mph 88 % 1.8 in
07:55 9.0 °F 7.1 °F 1011.1 in NE 6.3 mph 13.0 mph 88 % 2.5 in
07:57 9.0 °F 7.1 °F 1011.1 in ENE 4.8 mph 9.7 mph 88 % 2.3 in
08:02 9.0 °F 7.1 °F 1011.1 in East 5.3 mph 12.6 mph 88 % 2.5 in
08:07 8.9 °F 7.2 °F 1012.1 in ENE 6.4 mph 12.6 mph 89 % 2.8 in
08:12 8.9 °F 7.2 °F 1012.1 in ENE 6.3 mph 13.0 mph 89 % 2.8 in
08:17 8.9 °F 7.2 °F 1012.1 in NE 6.9 mph 13.0 mph 89 % 2.5 in
08:18 8.9 °F 7.2 °F 1012.1 in NE 6.9 mph 13.0 mph 89 % 2.5 in
08:23 8.9 °F 7.2 °F 1011.1 in NE 7.4 mph 18.0 mph 89 % 2.5 in
08:24 8.9 °F 7.2 °F 1011.1 in ENE 7.7 mph 18.0 mph 89 % 2.5 in
08:29 8.9 °F 7.2 °F 1011.1 in East 8.7 mph 18.0 mph 89 % 2.3 in
08:34 8.9 °F 7.2 °F 1011.1 in ENE 7.9 mph 16.9 mph 89 % 2.3 in
08:39 8.9 °F 7.2 °F 1012.1 in NE 7.6 mph 16.9 mph 89 % 2.3 in
08:44 8.9 °F 7.2 °F 1012.1 in NE 8.2 mph 24.5 mph 89 % 1.8 in
08:49 8.8 °F 7.1 °F 1012.1 in NNE 8.2 mph 24.5 mph 89 % 1.8 in
08:54 8.8 °F 7.1 °F 1012.1 in NNE 8.8 mph 23.8 mph 89 % 1.5 in
08:59 8.8 °F 7.1 °F 1012.1 in NE 9.0 mph 16.3 mph 89 % 1.5 in
09:04 8.8 °F 7.1 °F 1012.1 in ENE 8.5 mph 14.0 mph 89 % 1.5 in
09:09 8.7 °F 7.0 °F 1012.1 in NE 9.2 mph 17.2 mph 89 % 1.3 in
09:15 8.7 °F 7.0 °F 1012.1 in NE 8.5 mph 17.2 mph 89 % 1.3 in
09:20 8.7 °F 7.0 °F 1012.1 in NE 8.2 mph 17.7 mph 89 % 1.3 in
09:25 8.7 °F 7.0 °F 1012.1 in NE 8.0 mph 17.7 mph 89 % 1.3 in
09:30 8.6 °F 6.9 °F 1012.1 in NE 8.0 mph 27.0 mph 89 % 1.3 in
09:35 8.6 °F 6.7 °F 1012.1 in NE 9.7 mph 27.0 mph 88 % 1.3 in
09:40 8.6 °F 6.7 °F 1013.1 in NE 9.5 mph 16.9 mph 88 % 1.3 in
09:45 8.6 °F 6.7 °F 1013.1 in NE 8.7 mph 20.9 mph 88 % 1.5 in
09:50 8.6 °F 6.7 °F 1013.1 in NE 10.6 mph 20.9 mph 88 % 1.3 in
09:55 8.6 °F 6.6 °F 1012.1 in NE 12.9 mph 24.5 mph 87 % 1.3 in
10:00 8.6 °F 6.6 °F 1012.1 in NE 11.1 mph 24.5 mph 87 % 1.0 in
10:05 8.6 °F 6.6 °F 1012.1 in NE 10.5 mph 32.0 mph 87 % 0.5 in
10:10 8.6 °F 6.6 °F 1012.1 in NE 12.9 mph 34.6 mph 87 % 0.5 in
10:15 8.6 °F 6.6 °F 1012.1 in ENE 14.5 mph 34.6 mph 87 % 0.5 in
10:20 8.6 °F 6.4 °F 1012.1 in NE 12.4 mph 22.7 mph 86 % 0.3 in
10:25 8.6 °F 6.4 °F 1012.1 in NE 10.8 mph 25.3 mph 86 % 0.3 in
10:30 8.6 °F 6.4 °F 1012.1 in NE 11.3 mph 28.0 mph 86 % 0.3 in
10:35 8.6 °F 6.4 °F 1012.1 in NE 11.9 mph 28.0 mph 86 % 0.3 in
10:40 8.6 °F 6.2 °F 1012.1 in NE 9.8 mph 21.2 mph 85 % 0.3 in
10:45 8.6 °F 6.2 °F 1012.1 in NE 9.5 mph 20.9 mph 85 % 0.0 in
10:50 8.5 °F 6.1 °F 1013.1 in NE 11.7 mph 31.4 mph 85 % 0.3 in
10:55 8.5 °F 6.1 °F 1013.1 in NE 11.6 mph 31.4 mph 85 % 0.3 in
11:00 8.5 °F 6.1 °F 1013.1 in NE 11.3 mph 24.8 mph 85 % 0.8 in
11:05 8.4 °F 6.0 °F 1013.1 in NE 12.7 mph 24.5 mph 85 % 1.0 in
11:10 8.4 °F 6.0 °F 1013.1 in NE 15.3 mph 36.7 mph 85 % 1.3 in
11:15 8.4 °F 6.0 °F 1013.1 in NE 15.8 mph 36.7 mph 85 % 1.5 in
11:20 8.4 °F 6.0 °F 1013.1 in NE 13.8 mph 32.3 mph 85 % 1.5 in
11:25 8.4 °F 6.0 °F 1013.1 in NE 16.1 mph 38.9 mph 85 % 1.8 in
11:30 8.4 °F 6.0 °F 1013.1 in ENE 16.7 mph 38.9 mph 85 % 1.8 in
11:35 8.4 °F 6.0 °F 1013.1 in NE 10.9 mph 21.2 mph 85 % 1.8 in
11:40 8.4 °F 6.0 °F 1013.1 in NE 10.5 mph 20.6 mph 85 % 2.3 in
11:45 8.4 °F 6.0 °F 1013.1 in ENE 14.2 mph 39.6 mph 85 % 2.3 in
11:50 8.4 °F 6.0 °F 1013.1 in ENE 15.3 mph 39.6 mph 85 % 2.0 in
11:55 8.4 °F 6.0 °F 1013.1 in ENE 14.2 mph 33.5 mph 85 % 2.0 in
12:00 8.3 °F 5.9 °F 1013.1 in NE 12.9 mph 33.5 mph 85 % 2.3 in
12:05 8.3 °F 5.9 °F 1014.1 in ENE 10.6 mph 16.9 mph 85 % 1.8 in
12:10 8.3 °F 5.9 °F 1014.1 in ENE 9.2 mph 19.1 mph 85 % 1.8 in
12:15 8.3 °F 5.9 °F 1014.1 in ENE 10.5 mph 19.1 mph 85 % 1.8 in
12:20 8.3 °F 6.1 °F 1013.1 in ENE 10.9 mph 21.9 mph 86 % 2.3 in
12:25 8.4 °F 6.2 °F 1013.1 in ENE 9.3 mph 21.9 mph 86 % 2.3 in
12:30 8.4 °F 6.2 °F 1013.1 in ENE 8.8 mph 21.2 mph 86 % 2.3 in
12:35 8.4 °F 6.2 °F 1014.1 in East 8.7 mph 21.2 mph 86 % 2.5 in
12:40 8.4 °F 6.2 °F 1014.1 in East 8.7 mph 20.1 mph 86 % 2.3 in
12:45 8.4 °F 6.2 °F 1014.1 in ENE 8.0 mph 21.2 mph 86 % 2.5 in
12:50 8.4 °F 6.2 °F 1014.1 in ENE 8.2 mph 21.2 mph 86 % 2.3 in
12:55 8.4 °F 6.2 °F 1014.1 in ENE 10.3 mph 25.6 mph 86 % 2.8 in
13:00 8.4 °F 6.2 °F 1014.1 in NE 9.0 mph 25.6 mph 86 % 2.8 in
13:05 8.4 °F 6.2 °F 1014.1 in ENE 9.8 mph 23.8 mph 86 % 2.8 in
13:10 8.4 °F 6.2 °F 1014.1 in ENE 12.2 mph 23.8 mph 86 % 2.8 in
13:15 8.4 °F 6.2 °F 1014.1 in ENE 10.8 mph 20.1 mph 86 % 2.8 in
13:20 8.4 °F 6.2 °F 1014.1 in NE 11.3 mph 27.7 mph 86 % 2.8 in
13:25 8.4 °F 6.2 °F 1014.1 in NE 10.3 mph 27.7 mph 86 % 2.5 in
13:30 8.4 °F 6.2 °F 1014.1 in ENE 8.7 mph 19.8 mph 86 % 2.8 in
13:35 8.3 °F 6.1 °F 1013.1 in ENE 10.6 mph 19.5 mph 86 % 2.8 in
13:40 8.3 °F 6.1 °F 1013.1 in NE 11.7 mph 25.9 mph 86 % 3.0 in
13:45 8.3 °F 6.1 °F 1013.1 in NE 13.7 mph 27.7 mph 86 % 3.0 in
13:50 8.3 °F 5.9 °F 1014.1 in ENE 15.3 mph 27.7 mph 85 % 3.3 in
13:55 8.2 °F 5.8 °F 1014.1 in ENE 14.2 mph 24.8 mph 85 % 2.8 in
14:00 8.2 °F 6.0 °F 1014.1 in ENE 12.4 mph 24.5 mph 86 % 2.8 in
14:05 8.2 °F 6.0 °F 1014.1 in ENE 11.3 mph 24.5 mph 86 % 2.8 in
14:10 8.2 °F 6.0 °F 1014.1 in ENE 10.3 mph 20.1 mph 86 % 2.8 in
14:15 8.2 °F 6.0 °F 1014.1 in NE 9.5 mph 18.0 mph 86 % 2.8 in
14:20 8.1 °F 5.9 °F 1014.1 in NE 8.5 mph 20.6 mph 86 % 2.8 in
14:25 8.1 °F 5.9 °F 1014.1 in NE 9.5 mph 20.6 mph 86 % 3.0 in
14:30 8.1 °F 5.9 °F 1014.1 in NE 10.6 mph 20.9 mph 86 % 3.0 in
14:35 8.2 °F 6.0 °F 1014.1 in NE 13.2 mph 23.8 mph 86 % 2.8 in
14:40 8.2 °F 6.0 °F 1014.1 in ENE 13.8 mph 23.8 mph 86 % 3.3 in
14:45 8.2 °F 6.0 °F 1014.1 in NE 12.1 mph 19.8 mph 86 % 3.3 in
14:50 8.2 °F 6.0 °F 1013.1 in NE 13.4 mph 23.3 mph 86 % 3.8 in
14:55 8.2 °F 6.0 °F 1013.1 in ENE 14.5 mph 24.5 mph 86 % 4.1 in
15:00 8.1 °F 5.9 °F 1013.1 in ENE 11.7 mph 24.5 mph 86 % 4.1 in
15:05 8.2 °F 6.0 °F 1013.1 in ENE 12.1 mph 23.0 mph 86 % 4.1 in
15:10 8.1 °F 5.9 °F 1013.1 in ENE 13.5 mph 23.0 mph 86 % 3.8 in
15:15 8.1 °F 5.9 °F 1013.1 in ENE 12.1 mph 21.2 mph 86 % 4.1 in
15:20 8.1 °F 5.9 °F 1014.1 in ENE 10.5 mph 21.2 mph 86 % 4.1 in
15:22 8.1 °F 5.9 °F 1014.1 in NE 10.3 mph 21.2 mph 86 % 3.8 in
15:27 8.1 °F 5.9 °F 1014.1 in ENE 10.0 mph 20.1 mph 86 % 4.1 in
15:32 8.1 °F 5.9 °F 1014.1 in ENE 11.3 mph 28.5 mph 86 % 4.1 in
15:37 8.1 °F 5.9 °F 1014.1 in ENE 11.6 mph 28.5 mph 86 % 3.8 in
15:42 8.1 °F 5.7 °F 1014.1 in ENE 10.9 mph 21.2 mph 85 % 3.8 in
15:47 8.1 °F 5.7 °F 1014.1 in NE 12.2 mph 28.5 mph 85 % 3.0 in
15:52 8.0 °F 5.6 °F 1014.1 in NE 14.2 mph 28.5 mph 85 % 3.3 in
16:02 8.1 °F 5.7 °F 1014.1 in NE 13.8 mph 26.7 mph 85 % 3.6 in
16:07 8.1 °F 5.7 °F 1014.1 in NE 14.8 mph 31.7 mph 85 % 3.0 in
16:12 8.1 °F 5.7 °F 1014.1 in NE 15.4 mph 32.0 mph 85 % 3.0 in
16:17 8.1 °F 5.7 °F 1014.1 in ENE 15.8 mph 32.0 mph 85 % 3.3 in
16:22 8.0 °F 5.6 °F 1014.1 in ENE 14.2 mph 27.7 mph 85 % 3.3 in
16:27 8.0 °F 5.6 °F 1014.1 in ENE 12.1 mph 27.7 mph 85 % 3.6 in
16:32 8.1 °F 5.7 °F 1014.1 in ENE 12.1 mph 22.7 mph 85 % 3.3 in
16:37 8.0 °F 5.6 °F 1015.1 in ENE 11.9 mph 22.7 mph 85 % 3.3 in
16:42 8.0 °F 5.6 °F 1015.1 in NE 11.3 mph 21.6 mph 85 % 3.3 in
16:47 8.1 °F 5.7 °F 1015.1 in NE 12.1 mph 21.6 mph 85 % 3.8 in
16:58 8.0 °F 5.6 °F 1015.1 in ENE 10.3 mph 23.8 mph 85 % 3.0 in
17:02 8.0 °F 5.6 °F 1015.1 in ENE 8.2 mph 20.1 mph 85 % 3.0 in
17:08 8.0 °F 5.6 °F 1016.1 in ENE 7.9 mph 20.1 mph 85 % 3.3 in
17:13 8.0 °F 5.6 °F 1016.1 in ENE 9.3 mph 20.1 mph 85 % 3.0 in
17:17 8.0 °F 5.6 °F 1016.1 in East 8.2 mph 16.6 mph 85 % 3.0 in
17:23 8.0 °F 5.6 °F 1015.1 in ENE 7.1 mph 14.3 mph 85 % 2.8 in
17:28 8.0 °F 5.6 °F 1015.1 in ENE 8.4 mph 15.8 mph 85 % 2.8 in
17:33 8.0 °F 5.6 °F 1015.1 in East 10.6 mph 18.3 mph 85 % 2.8 in
17:38 8.0 °F 5.6 °F 1016.1 in East 13.8 mph 27.0 mph 85 % 2.5 in
17:43 8.0 °F 5.8 °F 1016.1 in ENE 15.0 mph 27.0 mph 86 % 2.5 in
17:48 8.0 °F 5.8 °F 1016.1 in ENE 11.6 mph 19.8 mph 86 % 2.3 in
17:53 8.0 °F 5.6 °F 1016.1 in NE 11.1 mph 30.6 mph 85 % 2.3 in
17:58 8.1 °F 5.7 °F 1016.1 in ENE 12.7 mph 30.6 mph 85 % 1.8 in
18:03 8.1 °F 5.7 °F 1016.1 in ENE 12.9 mph 24.5 mph 85 % 1.5 in
18:08 8.0 °F 5.6 °F 1016.1 in ENE 11.6 mph 21.6 mph 85 % 1.3 in
18:13 8.0 °F 5.6 °F 1016.1 in ENE 8.4 mph 21.6 mph 85 % 1.3 in
18:18 8.0 °F 5.6 °F 1016.1 in ENE 6.1 mph 11.9 mph 85 % 1.0 in
18:23 8.0 °F 5.6 °F 1016.1 in ENE 6.8 mph 13.7 mph 85 % 0.8 in
18:28 8.0 °F 5.6 °F 1016.1 in ENE 9.5 mph 17.7 mph 85 % 1.0 in
18:33 7.9 °F 5.7 °F 1016.1 in ENE 8.2 mph 17.7 mph 86 % 0.5 in
18:38 7.9 °F 5.7 °F 1016.1 in ENE 5.6 mph 12.6 mph 86 % 0.5 in
18:43 7.9 °F 5.7 °F 1016.1 in East 6.1 mph 13.7 mph 86 % 0.8 in
18:48 7.8 °F 5.6 °F 1016.1 in ENE 6.1 mph 13.7 mph 86 % 1.0 in
18:53 7.8 °F 5.6 °F 1015.1 in ENE 9.2 mph 24.5 mph 86 % 1.3 in
18:58 7.8 °F 5.6 °F 1015.1 in ENE 12.1 mph 24.5 mph 86 % 1.5 in
19:03 7.8 °F 5.6 °F 1015.1 in NE 11.3 mph 24.8 mph 86 % 1.8 in
19:08 7.9 °F 5.9 °F 1016.1 in ENE 12.9 mph 35.2 mph 87 % 2.8 in
19:13 7.9 °F 5.9 °F 1016.1 in ENE 15.8 mph 35.2 mph 87 % 2.8 in
19:18 7.9 °F 5.9 °F 1016.1 in ENE 14.6 mph 28.5 mph 87 % 3.0 in
19:23 7.9 °F 5.9 °F 1016.1 in ENE 12.1 mph 20.9 mph 87 % 3.0 in
19:28 7.9 °F 5.9 °F 1016.1 in ENE 11.1 mph 20.1 mph 87 % 2.8 in
19:33 7.9 °F 5.9 °F 1016.1 in ENE 11.4 mph 17.7 mph 87 % 2.8 in
19:38 7.9 °F 5.9 °F 1016.1 in ENE 10.9 mph 17.7 mph 87 % 3.0 in
19:43 7.9 °F 5.9 °F 1016.1 in NE 9.5 mph 17.7 mph 87 % 3.0 in
19:48 7.9 °F 5.9 °F 1016.1 in ENE 10.0 mph 17.7 mph 87 % 2.5 in
19:53 7.9 °F 5.9 °F 1016.1 in ENE 10.5 mph 21.2 mph 87 % 2.5 in
19:58 7.9 °F 5.9 °F 1016.1 in ENE 10.3 mph 21.2 mph 87 % 2.5 in
20:04 7.9 °F 5.9 °F 1016.1 in ENE 10.0 mph 18.3 mph 87 % 2.3 in
20:09 7.9 °F 5.9 °F 1016.1 in ENE 10.0 mph 18.3 mph 87 % 1.5 in
20:14 7.9 °F 5.9 °F 1016.1 in ENE 7.7 mph 16.3 mph 87 % 1.8 in
20:19 8.0 °F 5.9 °F 1016.1 in ENE 9.7 mph 24.8 mph 87 % 1.5 in
20:29 8.0 °F 5.9 °F 1016.1 in ENE 8.8 mph 16.9 mph 87 % 2.3 in
20:34 8.0 °F 5.9 °F 1016.1 in ENE 8.5 mph 18.3 mph 87 % 2.5 in
20:39 8.0 °F 5.9 °F 1016.1 in NE 9.2 mph 23.0 mph 87 % 2.5 in
20:44 8.1 °F 6.1 °F 1016.1 in NE 10.9 mph 23.0 mph 87 % 2.3 in
20:49 8.1 °F 6.1 °F 1016.1 in NE 11.9 mph 26.7 mph 87 % 2.3 in
20:54 8.1 °F 6.1 °F 1016.1 in ENE 11.3 mph 28.5 mph 87 % 2.5 in
20:59 8.1 °F 6.2 °F 1016.1 in ENE 10.3 mph 28.5 mph 88 % 2.5 in
21:04 8.2 °F 6.3 °F 1016.1 in NE 12.1 mph 24.8 mph 88 % 2.5 in
21:09 8.2 °F 6.3 °F 1016.1 in NE 13.2 mph 24.8 mph 88 % 2.5 in
21:14 8.2 °F 6.3 °F 1016.1 in NE 12.1 mph 22.7 mph 88 % 2.3 in
21:19 8.2 °F 6.3 °F 1016.1 in NE 12.9 mph 22.4 mph 88 % 2.3 in
21:24 8.2 °F 6.3 °F 1016.1 in NE 14.0 mph 23.0 mph 88 % 2.3 in
21:29 8.3 °F 6.4 °F 1016.1 in NE 12.7 mph 23.0 mph 88 % 1.8 in
21:34 8.3 °F 6.3 °F 1016.1 in NE 11.9 mph 17.2 mph 87 % 1.8 in
21:39 8.3 °F 6.3 °F 1016.1 in ENE 10.1 mph 17.2 mph 87 % 1.5 in
21:44 8.3 °F 6.3 °F 1016.1 in NE 10.0 mph 19.1 mph 87 % 1.8 in
21:49 8.4 °F 6.3 °F 1016.1 in NE 11.4 mph 19.1 mph 87 % 1.5 in
21:54 8.4 °F 6.3 °F 1016.1 in NE 12.6 mph 23.0 mph 87 % 1.5 in
21:59 8.4 °F 6.3 °F 1016.1 in NE 12.1 mph 26.7 mph 87 % 1.3 in
22:04 8.4 °F 6.3 °F 1016.1 in NE 12.9 mph 32.8 mph 87 % 1.3 in
22:09 8.4 °F 6.3 °F 1015.1 in NE 15.3 mph 32.8 mph 87 % 1.3 in
22:10 8.4 °F 6.3 °F 1015.1 in NE 16.4 mph 32.8 mph 87 % 1.3 in
22:15 8.5 °F 6.4 °F 1015.1 in NE 15.3 mph 28.8 mph 87 % 1.3 in
22:20 8.5 °F 6.3 °F 1016.1 in NE 14.0 mph 27.7 mph 86 % 1.0 in
22:25 8.5 °F 6.3 °F 1016.1 in NE 13.4 mph 23.8 mph 86 % 1.0 in
22:30 8.5 °F 6.3 °F 1016.1 in NE 11.6 mph 28.8 mph 86 % 0.8 in
22:35 8.5 °F 6.3 °F 1016.1 in ENE 14.6 mph 29.9 mph 86 % 0.8 in
22:40 8.6 °F 6.4 °F 1016.1 in NE 16.9 mph 33.1 mph 86 % 0.3 in
22:45 8.6 °F 6.2 °F 1016.1 in NE 15.3 mph 33.1 mph 85 % 0.3 in
22:50 8.7 °F 6.3 °F 1016.1 in NE 13.8 mph 27.0 mph 85 % 0.3 in
22:55 8.7 °F 6.3 °F 1016.1 in NE 11.4 mph 23.8 mph 85 % 0.3 in
23:00 8.7 °F 6.3 °F 1016.1 in NE 10.3 mph 17.7 mph 85 % 0.3 in
23:05 8.8 °F 6.2 °F 1016.1 in NE 11.7 mph 24.8 mph 84 % 0.0 in
23:10 8.8 °F 6.2 °F 1016.1 in NE 11.7 mph 24.8 mph 84 % 0.0 in
23:15 8.8 °F 6.2 °F 1016.1 in ENE 9.7 mph 23.8 mph 84 % 0.0 in
23:20 8.8 °F 6.1 °F 1016.8 in ENE 10.1 mph 22.7 mph 83 % 0.0 in
23:25 8.8 °F 6.1 °F 1016.8 in ENE 11.3 mph 22.7 mph 83 % 0.0 in
23:30 8.8 °F 6.1 °F 1016.8 in ENE 11.4 mph 21.2 mph 83 % 0.0 in
23:35 8.8 °F 6.1 °F 1016.8 in NE 9.2 mph 21.2 mph 83 % 0.0 in
23:40 8.8 °F 6.1 °F 1016.8 in ENE 9.8 mph 24.8 mph 83 % 0.0 in
23:45 8.8 °F 6.1 °F 1016.8 in ENE 11.9 mph 24.8 mph 83 % 0.0 in
23:50 8.8 °F 6.1 °F 1016.8 in NE 9.0 mph 20.6 mph 83 % 0.0 in
23:55 8.7 °F 6.0 °F 1016.8 in ENE 5.5 mph 11.6 mph 83 % 0.0 in
Vremenska postaja Senovo
Podatki zbrani iz Weather Underground - 3 mb

Script developed by  Jim McMurry - jmcmurry@mwt.net Adapted for the template by  Wim van der Kuil - Leuven-Template.eu

Vremenski podatki so objavljeni na:

European Weather Network

WeatherCloud

Weather Underground

AWEKAS

HAMweather, WeatherForYou, PWS Weather

MapView

Geostik

Slovenia weather network

Oprema, ki se uporablja:

Vremenski program
Cumulus

Vremenski server
Asus

Cumulus

Asus